createdAt,value
2019-04-25T00:01:46.335Z,100053.91
2019-04-25T00:06:52.315Z,100034.06
2019-04-25T00:11:59.694Z,100021.19
2019-04-25T00:17:05.683Z,100022.58
2019-04-25T00:22:31.648Z,100040.43
2019-04-25T00:27:37.199Z,100015.34
2019-04-25T00:32:44.086Z,100019.02
2019-04-25T00:37:49.865Z,100022.53
2019-04-25T00:42:55.422Z,100026.87
2019-04-25T00:48:04.335Z,100041.58
2019-04-25T00:53:11.292Z,100039.16
2019-04-25T00:58:38.801Z,100059.27
2019-04-25T01:03:45.303Z,100063.09
2019-04-25T01:08:53.241Z,100065.52
2019-04-25T01:13:58.120Z,100072.79
2019-04-25T01:19:03.596Z,100071.15
2019-04-25T01:24:09.161Z,100086.64
2019-04-25T01:29:14.992Z,100096.23
2019-04-25T01:34:25.855Z,100091.71
2019-04-25T01:39:51.045Z,100085.23
2019-04-25T01:44:58.004Z,100083.83
2019-04-25T01:50:04.054Z,100081.66
2019-04-25T01:55:09.786Z,100086.67
2019-04-25T02:00:16.972Z,100082.45
2019-04-25T02:05:23.788Z,100083.38
2019-04-25T02:10:29.347Z,100103.34
2019-04-25T02:15:34.922Z,100103.54
2019-04-25T02:20:40.333Z,100101.66
2019-04-25T02:25:45.769Z,100111.97
2019-04-25T02:30:51.262Z,100107.00
2019-04-25T02:35:59.364Z,100127.81
2019-04-25T02:41:08.283Z,100116.91
2019-04-25T02:46:36.847Z,100119.55
2019-04-25T02:51:59.557Z,100115.47
2019-04-25T02:57:08.180Z,100109.09
2019-04-25T03:02:15.395Z,100104.64
2019-04-25T03:07:20.933Z,100113.86
2019-04-25T03:12:33.032Z,100109.94
2019-04-25T03:17:34.236Z,100107.02
2019-04-25T03:22:39.823Z,100115.67
2019-04-25T03:27:45.233Z,100112.95
2019-04-25T03:32:51.610Z,100108.78
2019-04-25T03:37:57.211Z,100114.10
2019-04-25T03:43:04.723Z,100109.48
2019-04-25T03:48:09.813Z,100122.32
2019-04-25T03:53:15.392Z,100123.13
2019-04-25T03:58:20.939Z,100124.61
2019-04-25T04:03:26.343Z,100117.91
2019-04-25T04:08:31.732Z,100126.56
2019-04-25T04:13:37.165Z,100123.88
2019-04-25T04:18:44.412Z,100131.36
2019-04-25T04:23:58.546Z,100138.38
2019-04-25T04:29:04.702Z,100143.14
2019-04-25T04:34:10.625Z,100137.52
2019-04-25T04:39:16.801Z,100152.42
2019-04-25T04:44:24.129Z,100154.45
2019-04-25T04:49:29.817Z,100147.21
2019-04-25T04:54:35.471Z,100147.64
2019-04-25T04:59:40.905Z,100155.78
2019-04-25T05:05:12.031Z,100153.92
2019-04-25T05:10:19.777Z,100146.27
2019-04-25T05:15:25.508Z,100135.98
2019-04-25T05:20:31.038Z,100120.44
2019-04-25T05:25:36.605Z,100132.36
2019-04-25T05:30:47.355Z,100120.66
2019-04-25T05:35:53.911Z,100114.16
2019-04-25T05:41:04.041Z,100144.22
2019-04-25T05:46:09.543Z,100150.01
2019-04-25T05:51:15.862Z,100146.95
2019-04-25T05:56:22.444Z,100138.87
2019-04-25T06:01:30.093Z,100158.71
2019-04-25T06:06:36.808Z,100160.38
2019-04-25T06:11:49.932Z,100167.94
2019-04-25T06:16:58.230Z,100180.66
2019-04-25T06:22:03.712Z,100172.41
2019-04-25T06:27:28.482Z,100163.91
2019-04-25T06:32:35.370Z,100169.95
2019-04-25T06:37:41.089Z,100171.98
2019-04-25T06:42:46.828Z,100178.28
2019-04-25T06:48:17.257Z,100188.70
2019-04-25T06:53:24.735Z,100190.20
2019-04-25T06:58:30.161Z,100197.47
2019-04-25T07:03:35.830Z,100205.23
2019-04-25T07:08:41.271Z,100206.05
2019-04-25T07:13:46.847Z,100205.17
2019-04-25T07:18:53.416Z,100213.02
2019-04-25T07:23:58.901Z,100209.61
2019-04-25T07:29:35.718Z,100214.67
2019-04-25T07:34:41.199Z,100215.33
2019-04-25T07:39:46.630Z,100206.85
2019-04-25T07:44:53.465Z,100201.41
2019-04-25T07:49:59.326Z,100215.23
2019-04-25T07:55:05.072Z,100222.75
2019-04-25T08:00:15.013Z,100235.71
2019-04-25T08:05:20.530Z,100229.06
2019-04-25T08:10:27.885Z,100232.77
2019-04-25T08:15:43.849Z,100244.34
2019-04-25T08:20:49.302Z,100254.03
2019-04-25T08:25:54.777Z,100257.80
2019-04-25T08:31:00.268Z,100244.48
2019-04-25T08:36:09.117Z,100253.39
2019-04-25T08:41:14.027Z,100242.09
2019-04-25T08:46:19.863Z,100251.34
2019-04-25T08:51:28.687Z,100249.50
2019-04-25T08:56:36.472Z,100259.05
2019-04-25T09:02:03.825Z,100253.34
2019-04-25T09:07:09.390Z,100248.70
2019-04-25T09:12:14.968Z,100252.61
2019-04-25T09:17:20.598Z,100252.20
2019-04-25T09:22:26.041Z,100246.00
2019-04-25T09:27:33.330Z,100239.02
2019-04-25T09:32:39.877Z,100236.35
2019-04-25T09:37:46.169Z,100224.92
2019-04-25T09:42:51.740Z,100212.17
2019-04-25T09:48:01.178Z,100199.89
2019-04-25T09:53:06.683Z,100181.95
2019-04-25T09:58:16.068Z,100173.89
2019-04-25T10:03:23.352Z,100189.83
2019-04-25T10:08:28.966Z,100190.16
2019-04-25T10:13:34.422Z,100184.25
2019-04-25T10:18:39.877Z,100181.64
2019-04-25T10:23:46.741Z,100181.64
2019-04-25T10:28:52.260Z,100172.97
2019-04-25T10:33:57.703Z,100170.78
2019-04-25T10:39:08.649Z,100157.28
2019-04-25T10:44:10.554Z,100153.18
2019-04-25T10:49:15.998Z,100138.17
2019-04-25T10:54:21.531Z,100144.78
2019-04-25T10:59:26.973Z,100158.20
2019-04-25T11:04:38.131Z,100157.09
2019-04-25T11:09:45.570Z,100148.87
2019-04-25T11:14:50.940Z,100138.28
2019-04-25T11:19:58.220Z,100131.09
2019-04-25T11:25:03.679Z,100123.13
2019-04-25T11:30:11.580Z,100126.52
2019-04-25T11:35:17.198Z,100120.41
2019-04-25T11:40:29.411Z,100112.02
2019-04-25T11:45:36.016Z,100097.59
2019-04-25T11:50:44.103Z,100085.88
2019-04-25T11:55:50.109Z,100094.73
2019-04-25T12:00:57.934Z,100087.29
2019-04-25T12:06:02.970Z,100067.02
2019-04-25T12:11:08.454Z,100057.84
2019-04-25T12:16:14.405Z,100057.89
2019-04-25T12:21:19.959Z,100060.98
2019-04-25T12:26:26.347Z,100056.80
2019-04-25T12:31:31.893Z,100067.63
2019-04-25T12:36:37.450Z,100046.66
2019-04-25T12:41:44.154Z,100029.12
2019-04-25T12:46:50.898Z,100029.27
2019-04-25T12:51:56.723Z,100044.75
2019-04-25T12:57:04.035Z,100039.02
2019-04-25T13:02:09.519Z,100049.66
2019-04-25T13:07:14.957Z,100058.64
2019-04-25T13:12:20.845Z,100083.41
2019-04-25T13:17:26.276Z,100086.25
2019-04-25T13:22:33.100Z,100061.89
2019-04-25T13:27:51.390Z,100046.73
2019-04-25T13:33:15.831Z,100058.52
2019-04-25T13:38:21.401Z,100049.03
2019-04-25T13:43:26.954Z,100036.09
2019-04-25T13:48:34.351Z,100032.57
2019-04-25T13:53:39.744Z,100033.20
2019-04-25T13:58:45.193Z,100039.40
2019-04-25T14:03:51.111Z,100036.30
2019-04-25T14:08:56.881Z,100038.23
2019-04-25T14:14:02.455Z,100027.64
2019-04-25T14:19:34.811Z,100019.73
2019-04-25T14:24:40.386Z,100017.17
2019-04-25T14:29:45.949Z,100012.27
2019-04-25T14:34:51.461Z,100011.19
2019-04-25T14:39:56.879Z,100006.30
2019-04-25T14:45:02.335Z,100011.92
2019-04-25T14:50:07.841Z,100020.77
2019-04-25T14:55:47.150Z,100020.67
2019-04-25T15:00:53.068Z,100013.74
2019-04-25T15:05:58.513Z,100016.98
2019-04-25T15:11:04.217Z,100004.84
2019-04-25T15:16:09.740Z,100005.59
2019-04-25T15:21:15.563Z,99998.92
2019-04-25T15:26:20.977Z,99982.83
2019-04-25T15:31:28.168Z,99993.56
2019-04-25T15:36:52.622Z,100007.61
2019-04-25T15:42:06.282Z,100006.42
2019-04-25T15:47:14.662Z,100014.03
2019-04-25T15:52:20.136Z,100013.37
2019-04-25T15:57:25.566Z,100015.16
2019-04-25T16:02:30.997Z,100018.41
2019-04-25T16:07:36.429Z,100040.22
2019-04-25T16:12:41.940Z,100060.55
2019-04-25T16:17:47.435Z,100057.63
2019-04-25T16:22:52.886Z,100058.12
2019-04-25T16:27:58.315Z,100048.05
2019-04-25T16:33:05.280Z,100047.98
2019-04-25T16:38:11.477Z,100074.14
2019-04-25T16:43:20.575Z,100086.48
2019-04-25T16:48:26.220Z,100100.54
2019-04-25T16:53:32.577Z,100112.63
2019-04-25T16:58:38.618Z,100128.41
2019-04-25T17:03:44.234Z,100138.08
2019-04-25T17:08:49.856Z,100129.39
2019-04-25T17:14:22.958Z,100140.02
2019-04-25T17:19:45.736Z,100167.28
2019-04-25T17:24:51.383Z,100156.98
2019-04-25T17:29:58.363Z,100134.29
2019-04-25T17:35:12.465Z,100154.54
2019-04-25T17:40:20.919Z,100163.57
2019-04-25T17:45:32.130Z,100148.23
2019-04-25T17:50:39.643Z,100150.87
2019-04-25T17:55:45.159Z,100159.70
2019-04-25T18:00:50.661Z,100164.36
2019-04-25T18:05:56.054Z,100187.74
2019-04-25T18:11:01.492Z,100183.46
2019-04-25T18:16:23.799Z,100198.41
2019-04-25T18:21:29.347Z,100210.00
2019-04-25T18:26:52.054Z,100227.39
2019-04-25T18:33:10.482Z,100234.82
2019-04-25T18:38:36.023Z,100262.52
2019-04-25T18:43:44.887Z,100262.62
2019-04-25T18:48:50.364Z,100275.05
2019-04-25T18:54:20.757Z,100292.34
2019-04-25T18:59:48.314Z,100306.70
2019-04-25T19:05:01.143Z,100319.03
2019-04-25T19:10:08.609Z,100326.12
2019-04-25T19:15:14.062Z,100323.55
2019-04-25T19:20:19.561Z,100337.70
2019-04-25T19:25:25.089Z,100345.55
2019-04-25T19:30:30.735Z,100363.08
2019-04-25T19:35:36.664Z,100364.97
2019-04-25T19:41:10.484Z,100358.38
2019-04-25T19:46:15.974Z,100343.81
2019-04-25T19:51:21.561Z,100363.20
2019-04-25T19:56:27.082Z,100354.95
2019-04-25T20:01:32.510Z,100361.20
2019-04-25T20:06:54.941Z,100373.83
2019-04-25T20:12:00.664Z,100388.41
2019-04-25T20:17:06.238Z,100386.56
2019-04-25T20:22:11.677Z,100387.97
2019-04-25T20:27:17.092Z,100375.30
2019-04-25T20:32:22.549Z,100389.73
2019-04-25T20:37:27.969Z,100404.80
2019-04-25T20:42:33.609Z,100392.61
2019-04-25T20:47:39.006Z,100384.59
2019-04-25T20:52:44.435Z,100401.94
2019-04-25T20:57:51.170Z,100412.11
2019-04-25T21:02:56.645Z,100396.89
2019-04-25T21:08:02.202Z,100378.56
2019-04-25T21:13:10.830Z,100395.61
2019-04-25T21:18:32.106Z,100423.92
2019-04-25T21:23:37.569Z,100424.88
2019-04-25T21:28:42.975Z,100400.93
2019-04-25T21:33:48.466Z,100423.54
2019-04-25T21:38:54.153Z,100433.64
2019-04-25T21:44:04.831Z,100439.31
2019-04-25T21:49:10.699Z,100435.98
2019-04-25T21:54:16.117Z,100454.53
2019-04-25T21:59:22.017Z,100451.78
2019-04-25T22:04:38.191Z,100445.34
2019-04-25T22:09:34.800Z,100431.39
2019-04-25T22:14:40.476Z,100433.95
2019-04-25T22:19:45.972Z,100443.09
2019-04-25T22:24:51.792Z,100416.51
2019-04-25T22:30:00.394Z,100395.94
2019-04-25T22:35:13.090Z,100397.63
2019-04-25T22:40:18.559Z,100407.44
2019-04-25T22:45:24.745Z,100396.78
2019-04-25T22:50:30.445Z,100387.27
2019-04-25T22:55:35.913Z,100363.81
2019-04-25T23:00:41.429Z,100374.70
2019-04-25T23:05:51.648Z,100391.09
2019-04-25T23:10:57.455Z,100395.74
2019-04-25T23:16:04.128Z,100399.06
2019-04-25T23:21:10.421Z,100402.48
2019-04-25T23:26:43.767Z,100417.98
2019-04-25T23:31:49.375Z,100425.16
2019-04-25T23:36:55.135Z,100429.20
2019-04-25T23:42:00.835Z,100434.64
2019-04-25T23:47:07.354Z,100427.45
2019-04-25T23:52:13.562Z,100424.09
2019-04-25T23:57:19.113Z,100400.57
